San Juan, Texas
Current Conditions -  °F | °C
As of 12:53 AM on Wednesday 22 Oct 2014 (Local Time) from KMFE Reporting Station
Scattered Clouds Scattered Clouds  
Wind Chill: 74°   Ceiling: Unl
Heat Index: 74°   Visibility: 9mi
Dew Point: 71°   Wind: 6mph
Humidity: 91%   Direction: 40°NE
Pressure: 29.96"   Gusts: NA
Location:  26.19°N, 98.15°W
Report Text: KMFE 220553Z AUTO 04005KT 9SM SCT070 23/22 A2996 RMK AO2 SLP144 T02330217 10244 20233 402830217 58003
Loading
Personal Weather Stations






























Interactive Weather Map
Tropical Storm Tracking
New forecast layout! Learn more

10-Day Weather Forecast

Advertisements
Track Severe Weather on mobile